createdAt,value
2018-08-13T00:01:32.441Z,18.40
2018-08-13T00:04:01.281Z,18.30
2018-08-13T00:06:30.083Z,18.30
2018-08-13T00:08:59.267Z,18.30
2018-08-13T00:11:28.057Z,18.30
2018-08-13T00:13:56.850Z,18.30
2018-08-13T00:16:25.637Z,18.30
2018-08-13T00:18:54.523Z,18.30
2018-08-13T00:21:23.281Z,18.30
2018-08-13T00:23:52.461Z,18.30
2018-08-13T00:26:21.271Z,18.30
2018-08-13T00:31:46.681Z,18.30
2018-08-13T00:34:15.731Z,18.20
2018-08-13T00:36:44.781Z,18.20
2018-08-13T00:39:14.018Z,18.20
2018-08-13T00:41:42.960Z,18.20
2018-08-13T00:44:11.825Z,18.20
2018-08-13T00:46:40.720Z,18.20
2018-08-13T00:49:09.545Z,18.20
2018-08-13T00:51:38.417Z,18.30
2018-08-13T00:54:07.217Z,18.30
2018-08-13T00:56:36.018Z,18.30
2018-08-13T00:59:04.872Z,18.20
2018-08-13T01:01:33.833Z,18.20
2018-08-13T01:04:02.653Z,18.20
2018-08-13T01:06:31.449Z,18.20
2018-08-13T01:09:00.266Z,18.20
2018-08-13T01:11:29.097Z,18.20
2018-08-13T01:13:58.013Z,18.20
2018-08-13T01:16:27.076Z,18.20
2018-08-13T01:18:55.917Z,18.20
2018-08-13T01:21:24.909Z,18.20
2018-08-13T01:23:53.777Z,18.10
2018-08-13T01:26:22.658Z,18.10
2018-08-13T01:28:51.614Z,18.10
2018-08-13T01:31:20.495Z,18.10
2018-08-13T01:33:49.514Z,18.10
2018-08-13T01:36:18.332Z,18.10
2018-08-13T01:38:47.148Z,18.10
2018-08-13T01:41:16.060Z,18.00
2018-08-13T01:43:44.838Z,18.00
2018-08-13T01:46:13.737Z,18.00
2018-08-13T01:48:42.524Z,18.00
2018-08-13T01:51:11.459Z,18.00
2018-08-13T01:53:40.237Z,18.00
2018-08-13T01:56:09.089Z,18.00
2018-08-13T01:58:37.917Z,18.00
2018-08-13T02:01:06.892Z,18.00
2018-08-13T02:03:35.879Z,18.00
2018-08-13T02:06:04.673Z,18.00
2018-08-13T02:08:33.633Z,18.00
2018-08-13T02:11:02.679Z,18.00
2018-08-13T02:13:31.492Z,18.00
2018-08-13T02:16:00.326Z,18.00
2018-08-13T02:18:29.350Z,18.00
2018-08-13T02:20:58.326Z,18.00
2018-08-13T02:23:27.161Z,18.00
2018-08-13T02:25:56.081Z,18.00
2018-08-13T02:28:25.021Z,18.00
2018-08-13T02:30:53.837Z,18.00
2018-08-13T02:33:22.748Z,18.00
2018-08-13T02:35:51.661Z,18.00
2018-08-13T02:38:20.509Z,17.90
2018-08-13T02:40:49.337Z,17.90
2018-08-13T02:43:18.469Z,18.00
2018-08-13T02:45:47.261Z,17.90
2018-08-13T02:48:16.052Z,17.90
2018-08-13T02:50:44.927Z,17.90
2018-08-13T02:53:13.729Z,17.90
2018-08-13T02:55:42.729Z,17.90
2018-08-13T02:58:11.570Z,17.90
2018-08-13T03:00:40.301Z,18.00
2018-08-13T03:03:09.162Z,17.90
2018-08-13T03:05:44.749Z,17.90
2018-08-13T03:08:13.561Z,17.90
2018-08-13T03:10:42.565Z,17.90
2018-08-13T03:13:11.402Z,17.90
2018-08-13T03:15:40.248Z,17.90
2018-08-13T03:18:09.225Z,17.90
2018-08-13T03:20:38.061Z,17.90
2018-08-13T03:23:07.275Z,17.90
2018-08-13T03:25:36.061Z,17.90
2018-08-13T03:28:04.888Z,17.90
2018-08-13T03:30:33.774Z,17.90
2018-08-13T03:33:02.561Z,17.90
2018-08-13T03:35:31.370Z,17.90
2018-08-13T03:38:00.177Z,17.90
2018-08-13T03:40:29.409Z,17.80
2018-08-13T03:42:58.197Z,17.90
2018-08-13T03:45:27.007Z,17.90
2018-08-13T03:47:55.840Z,17.80
2018-08-13T03:50:24.948Z,17.80
2018-08-13T03:52:53.801Z,17.80
2018-08-13T03:55:22.574Z,17.80
2018-08-13T03:57:51.393Z,17.80
2018-08-13T04:00:20.397Z,17.80
2018-08-13T04:02:49.189Z,17.80
2018-08-13T04:05:17.977Z,17.80
2018-08-13T04:07:46.809Z,17.80
2018-08-13T04:10:16.057Z,17.80
2018-08-13T04:12:44.907Z,17.80
2018-08-13T04:15:14.665Z,17.80
2018-08-13T04:17:44.457Z,17.80
2018-08-13T04:20:14.510Z,17.80
2018-08-13T04:22:44.046Z,17.80
2018-08-13T04:25:12.986Z,17.80
2018-08-13T04:27:42.209Z,17.80
2018-08-13T04:30:13.525Z,17.80
2018-08-13T04:32:43.085Z,17.80
2018-08-13T04:35:11.824Z,17.80
2018-08-13T04:37:41.586Z,17.80
2018-08-13T04:40:12.657Z,17.90
2018-08-13T04:42:42.821Z,17.80
2018-08-13T04:45:11.912Z,17.80
2018-08-13T04:47:44.766Z,17.90
2018-08-13T04:50:13.584Z,17.90
2018-08-13T04:52:42.585Z,17.90
2018-08-13T04:55:11.569Z,17.90
2018-08-13T04:57:40.578Z,17.90
2018-08-13T05:00:09.865Z,17.90
2018-08-13T05:02:39.149Z,17.90
2018-08-13T05:05:09.389Z,17.90
2018-08-13T05:07:38.531Z,17.90
2018-08-13T05:10:08.697Z,17.90
2018-08-13T05:12:37.679Z,17.90
2018-08-13T05:15:07.438Z,17.90
2018-08-13T05:17:36.221Z,18.00
2018-08-13T05:20:05.334Z,18.00
2018-08-13T05:22:34.230Z,18.00
2018-08-13T05:25:03.237Z,18.10
2018-08-13T05:27:32.020Z,18.10
2018-08-13T05:30:00.940Z,18.00
2018-08-13T05:32:29.723Z,18.10
2018-08-13T05:34:58.525Z,18.10
2018-08-13T05:37:27.297Z,18.10
2018-08-13T05:39:56.145Z,18.10
2018-08-13T05:42:24.958Z,18.10
2018-08-13T05:44:53.754Z,18.10
2018-08-13T05:47:22.564Z,18.00
2018-08-13T05:49:51.367Z,18.10
2018-08-13T05:52:20.121Z,18.10
2018-08-13T05:54:49.182Z,18.10
2018-08-13T05:57:17.980Z,18.20
2018-08-13T05:59:46.872Z,18.20
2018-08-13T06:02:16.789Z,18.20
2018-08-13T06:04:45.584Z,18.20
2018-08-13T06:07:14.543Z,18.30
2018-08-13T06:09:43.481Z,18.30
2018-08-13T06:12:12.310Z,18.30
2018-08-13T06:14:41.177Z,18.30
2018-08-13T06:17:09.964Z,18.40
2018-08-13T06:19:38.845Z,18.50
2018-08-13T06:22:08.397Z,18.50
2018-08-13T06:24:37.514Z,18.50
2018-08-13T06:27:06.617Z,18.50
2018-08-13T06:29:36.157Z,18.50
2018-08-13T06:32:04.959Z,18.60
2018-08-13T06:34:33.843Z,18.60
2018-08-13T06:37:02.848Z,18.60
2018-08-13T06:39:31.633Z,18.60
2018-08-13T06:42:00.477Z,18.70
2018-08-13T06:44:29.394Z,18.90
2018-08-13T06:46:58.369Z,19.00
2018-08-13T06:49:27.353Z,19.00
2018-08-13T06:51:56.197Z,19.10
2018-08-13T06:54:25.280Z,19.20
2018-08-13T06:56:55.305Z,19.20
2018-08-13T06:59:24.217Z,19.20
2018-08-13T07:01:52.997Z,19.30
2018-08-13T07:04:22.373Z,19.50
2018-08-13T07:06:51.681Z,19.60
2018-08-13T14:05:13.804Z,24.30
2018-08-13T14:07:42.906Z,24.20
2018-08-13T14:10:14.310Z,24.20
2018-08-13T14:12:44.444Z,24.10
2018-08-13T14:15:14.829Z,23.90
2018-08-13T14:17:44.430Z,23.90
2018-08-13T14:20:13.340Z,23.80
2018-08-13T14:22:42.299Z,23.80
2018-08-13T14:25:12.534Z,23.70
2018-08-13T14:27:41.513Z,23.70
2018-08-13T14:30:14.037Z,23.70
2018-08-13T14:32:42.901Z,23.60
2018-08-13T14:35:11.738Z,23.60
2018-08-13T14:37:41.014Z,23.70
2018-08-13T14:40:11.446Z,23.60
2018-08-13T14:42:40.433Z,23.50
2018-08-13T14:45:11.099Z,23.40
2018-08-13T14:47:40.794Z,23.40
2018-08-13T14:50:10.848Z,23.40
2018-08-13T14:52:40.845Z,23.30
2018-08-13T14:57:38.094Z,23.20
2018-08-13T15:00:33.729Z,23.20
2018-08-13T15:03:02.521Z,23.30
2018-08-13T15:05:31.559Z,23.30
2018-08-13T15:08:00.368Z,23.30
2018-08-13T15:10:29.235Z,23.30
2018-08-13T15:12:58.290Z,23.30
2018-08-13T15:15:27.030Z,23.30
2018-08-13T15:17:56.370Z,23.30
2018-08-13T15:20:28.118Z,23.30
2018-08-13T15:22:57.102Z,23.20
2018-08-13T15:25:26.632Z,23.00
2018-08-13T15:27:55.615Z,23.00
2018-08-13T15:30:24.832Z,23.00
2018-08-13T15:32:54.175Z,22.80
2018-08-13T15:35:23.013Z,22.80
2018-08-13T15:37:52.014Z,22.60
2018-08-13T15:40:21.131Z,22.50
2018-08-13T15:42:49.981Z,22.40
2018-08-13T15:45:22.070Z,22.40
2018-08-13T15:47:51.175Z,22.40
2018-08-13T15:50:20.990Z,22.30
2018-08-13T15:52:50.426Z,22.10
2018-08-13T15:55:19.395Z,21.80
2018-08-13T15:57:48.363Z,21.70
2018-08-13T16:00:20.505Z,21.50
2018-08-13T16:02:49.832Z,21.60
2018-08-13T16:05:18.829Z,21.60
2018-08-13T16:07:48.262Z,21.70
2018-08-13T16:10:17.733Z,21.70
2018-08-13T16:12:46.851Z,21.60
2018-08-13T16:15:15.998Z,21.60
2018-08-13T16:17:45.025Z,21.50
2018-08-13T16:20:15.853Z,21.50
2018-08-13T16:22:45.588Z,21.60
2018-08-13T16:25:14.756Z,21.60
2018-08-13T16:27:44.353Z,21.70
2018-08-13T16:30:17.460Z,21.60
2018-08-13T16:32:47.286Z,21.80
2018-08-13T16:35:16.684Z,21.90
2018-08-13T16:37:46.065Z,22.00
2018-08-13T16:40:15.685Z,21.90
2018-08-13T16:42:44.460Z,21.90
2018-08-13T16:45:14.326Z,21.90
2018-08-13T16:47:43.161Z,22.00
2018-08-13T16:50:15.223Z,22.00
2018-08-13T16:52:44.113Z,22.00
2018-08-13T16:55:13.370Z,21.90
2018-08-13T16:57:43.341Z,22.00
2018-08-13T17:03:19.807Z,22.50
2018-08-13T17:05:48.629Z,23.40
2018-08-13T17:08:17.505Z,23.40
2018-08-13T17:10:46.863Z,23.30
2018-08-13T17:13:15.844Z,23.00
2018-08-13T17:15:46.491Z,22.90
2018-08-13T17:18:16.561Z,22.70
2018-08-13T17:20:46.214Z,22.60
2018-08-13T17:23:15.074Z,22.50
2018-08-13T17:25:44.041Z,22.30
2018-08-13T17:28:12.985Z,22.30
2018-08-13T17:30:41.697Z,22.20
2018-08-13T17:33:11.991Z,22.20
2018-08-13T17:35:40.948Z,22.10
2018-08-13T17:38:11.770Z,22.10
2018-08-13T17:40:41.393Z,22.00
2018-08-13T17:43:11.601Z,22.00
2018-08-13T17:45:40.915Z,22.00
2018-08-13T17:48:11.501Z,22.00
2018-08-13T17:50:40.481Z,22.00
2018-08-13T17:53:10.114Z,22.00
2018-08-13T17:55:39.045Z,22.00
2018-08-13T17:58:08.294Z,21.90
2018-08-13T18:00:37.101Z,21.90
2018-08-13T18:03:06.130Z,21.90
2018-08-13T18:05:35.081Z,21.80
2018-08-13T18:08:03.921Z,21.80
2018-08-13T18:10:34.249Z,21.80
2018-08-13T18:13:10.027Z,21.80
2018-08-13T18:15:41.099Z,21.80
2018-08-13T18:18:10.029Z,21.80
2018-08-13T18:20:38.857Z,21.80
2018-08-13T18:23:07.681Z,21.70
2018-08-13T18:25:36.526Z,21.70
2018-08-13T18:28:05.336Z,21.70
2018-08-13T18:30:34.374Z,21.70
2018-08-13T18:33:03.494Z,21.60
2018-08-13T18:35:32.621Z,21.50
2018-08-13T18:38:01.940Z,21.60
2018-08-13T18:40:32.696Z,21.50
2018-08-13T18:43:01.651Z,21.50
2018-08-13T18:45:30.499Z,21.50
2018-08-13T18:47:59.797Z,21.40
2018-08-13T18:50:28.557Z,21.40
2018-08-13T18:52:57.360Z,21.30
2018-08-13T18:59:40.932Z,21.30
2018-08-13T19:02:35.533Z,22.00
2018-08-13T19:05:05.863Z,22.30
2018-08-13T19:07:35.712Z,22.20
2018-08-13T19:10:06.842Z,22.00
2018-08-13T19:12:36.257Z,21.80
2018-08-13T19:15:07.380Z,21.60
2018-08-13T19:17:36.732Z,21.40
2018-08-13T19:20:07.459Z,21.30
2018-08-13T19:22:36.774Z,21.30
2018-08-13T19:25:07.664Z,21.40
2018-08-13T19:27:37.457Z,21.40
2018-08-13T19:30:07.496Z,21.20
2018-08-13T19:32:37.329Z,21.10
2018-08-13T19:35:07.530Z,20.90
2018-08-13T19:37:36.729Z,20.60
2018-08-13T19:40:08.679Z,20.40
2018-08-13T19:42:37.984Z,20.20
2018-08-13T19:45:08.570Z,20.10
2018-08-13T19:47:37.919Z,20.00
2018-08-13T19:50:08.664Z,19.90
2018-08-13T19:52:38.281Z,19.80
2018-08-13T19:55:07.738Z,19.70
2018-08-13T19:57:36.845Z,19.60
2018-08-13T20:00:13.783Z,19.60
2018-08-13T20:02:43.831Z,19.70
2018-08-13T20:05:13.115Z,19.60
2018-08-13T20:07:42.529Z,19.60
2018-08-13T20:10:14.234Z,19.60
2018-08-13T20:12:44.702Z,19.60
2018-08-13T20:15:14.353Z,19.50
2018-08-13T20:17:44.252Z,19.50
2018-08-13T20:20:18.140Z,19.60
2018-08-13T20:22:48.310Z,19.60
2018-08-13T20:25:19.306Z,19.70
2018-08-13T20:27:49.103Z,19.80
2018-08-13T20:30:19.883Z,19.80
2018-08-13T20:32:50.143Z,19.80
2018-08-13T20:35:19.287Z,19.80
2018-08-13T20:37:48.711Z,19.70
2018-08-13T20:40:19.119Z,19.70
2018-08-13T20:42:49.081Z,19.70
2018-08-13T20:45:20.133Z,19.60
2018-08-13T20:47:49.726Z,19.60
2018-08-13T20:50:23.829Z,19.60
2018-08-13T20:52:53.775Z,19.60
2018-08-13T20:55:27.392Z,19.50
2018-08-13T20:57:56.475Z,19.50
2018-08-13T21:00:27.354Z,19.50
2018-08-13T21:02:56.478Z,19.50
2018-08-13T21:05:25.662Z,19.50
2018-08-13T21:07:54.956Z,19.40
2018-08-13T21:10:24.969Z,19.40
2018-08-13T21:12:54.614Z,19.40
2018-08-13T21:15:23.850Z,19.40
2018-08-13T21:17:53.289Z,19.40
2018-08-13T21:20:25.438Z,19.40
2018-08-13T21:22:55.397Z,19.30
2018-08-13T21:25:25.229Z,19.30
2018-08-13T21:27:54.930Z,19.20
2018-08-13T21:30:24.930Z,19.20
2018-08-13T21:32:54.311Z,19.10
2018-08-13T21:35:25.055Z,19.10
2018-08-13T21:37:54.777Z,19.10
2018-08-13T21:40:24.887Z,19.00
2018-08-13T21:42:54.602Z,19.00
2018-08-13T21:45:23.952Z,19.00
2018-08-13T21:47:54.351Z,18.90
2018-08-13T21:50:24.385Z,18.80
2018-08-13T21:52:54.385Z,18.70
2018-08-13T21:55:25.204Z,18.80
2018-08-13T21:57:54.578Z,18.80
2018-08-13T22:00:27.548Z,18.80
2018-08-13T22:03:00.923Z,18.70
2018-08-13T22:05:30.597Z,18.50
2018-08-13T22:08:00.504Z,18.50
2018-08-13T22:10:30.817Z,18.60
2018-08-13T22:13:01.426Z,18.60
2018-08-13T22:15:32.890Z,18.50
2018-08-13T22:18:05.438Z,18.50
2018-08-13T22:20:36.451Z,18.40
2018-08-13T22:23:07.245Z,18.40
2018-08-13T22:25:40.020Z,18.40
2018-08-13T22:28:11.044Z,18.40
2018-08-13T22:30:40.793Z,18.30
2018-08-13T22:33:11.901Z,18.20
2018-08-13T22:35:41.226Z,18.20
2018-08-13T22:38:10.655Z,18.30
2018-08-13T22:40:40.604Z,18.30
2018-08-13T22:43:10.011Z,18.30
2018-08-13T22:45:39.710Z,18.30
2018-08-13T22:48:09.013Z,18.30
2018-08-13T22:50:38.902Z,18.40
2018-08-13T22:53:08.516Z,18.40
2018-08-13T22:55:37.835Z,18.30
2018-08-13T22:58:06.961Z,18.30
2018-08-13T23:00:36.453Z,18.30
2018-08-13T23:03:06.293Z,18.30
2018-08-13T23:05:35.549Z,18.30
2018-08-13T23:08:05.211Z,18.20
2018-08-13T23:10:35.347Z,18.20
2018-08-13T23:13:05.728Z,18.10
2018-08-13T23:15:35.588Z,18.00
2018-08-13T23:18:05.683Z,18.00
2018-08-13T23:20:35.313Z,18.00
2018-08-13T23:23:04.621Z,18.10
2018-08-13T23:25:35.269Z,18.10
2018-08-13T23:28:06.831Z,18.00
2018-08-13T23:30:37.385Z,18.00
2018-08-13T23:33:07.657Z,18.00
2018-08-13T23:35:37.760Z,18.00
2018-08-13T23:38:07.707Z,18.10
2018-08-13T23:40:37.268Z,18.10
2018-08-13T23:43:06.404Z,18.10
2018-08-13T23:45:35.617Z,18.10
2018-08-13T23:48:05.103Z,18.10
2018-08-13T23:50:35.308Z,18.10
2018-08-13T23:53:04.748Z,18.00
2018-08-13T23:55:37.477Z,18.00
2018-08-13T23:58:10.461Z,18.10
